Time;durP1;ratioP1;P1;durP2;ratioP2;P2;SDS_P1;SDS_P2;PMS_P1;PMS_P2;Temp;Humidity;BMP_temperature;BMP_pressure;BME280_temperature;BME280_humidity;BME280_pressure;Samples;Min_cycle;Max_cycle;Signal;HPM_P1;HPM_P2
2022/04/24 00:00:38;;;;;;;59.28;41.72;;;8.70;99.90;;;;;;5031042;28;20055;-54
2022/04/24 00:03:04;;;;;;;61.97;42.05;;;8.80;99.90;;;;;;5029092;28;20064;-57
2022/04/24 00:05:29;;;;;;;58.40;40.17;;;8.80;99.90;;;;;;5038063;28;20083;-54
2022/04/24 00:07:55;;;;;;;64.53;43.22;;;8.80;99.90;;;;;;5039585;28;20067;-56
2022/04/24 00:10:21;;;;;;;64.13;43.45;;;8.80;99.90;;;;;;5030796;28;20041;-54
2022/04/24 00:12:48;;;;;;;61.03;41.65;;;8.70;99.90;;;;;;5030765;28;20087;-51
2022/04/24 00:15:14;;;;;;;61.25;42.75;;;8.70;99.90;;;;;;5036986;28;20080;-54
2022/04/24 00:17:40;;;;;;;63.58;41.35;;;8.70;99.90;;;;;;5050577;28;20408;-53
2022/04/24 00:20:06;;;;;;;64.63;40.85;;;8.70;99.90;;;;;;5048871;28;20167;-53
2022/04/24 00:22:32;;;;;;;61.38;40.92;;;8.70;99.90;;;;;;5048523;28;20033;-56
2022/04/24 00:24:58;;;;;;;65.68;43.67;;;8.70;99.90;;;;;;5042713;28;20047;-53
2022/04/24 00:27:23;;;;;;;61.83;41.38;;;8.70;99.90;;;;;;5050382;28;20032;-57
2022/04/24 00:29:49;;;;;;;60.55;41.47;;;8.70;99.90;;;;;;5031539;28;20526;-52
2022/04/24 00:32:15;;;;;;;64.72;43.30;;;8.70;99.90;;;;;;5030408;28;20086;-56
2022/04/24 00:34:41;;;;;;;65.32;42.50;;;8.60;99.90;;;;;;5031052;28;20041;-51
2022/04/24 00:37:07;;;;;;;67.13;41.08;;;8.60;99.90;;;;;;5050273;28;20025;-54
2022/04/24 00:39:33;;;;;;;54.05;39.33;;;8.70;99.90;;;;;;5036431;28;20048;-55
2022/04/24 00:41:59;;;;;;;58.25;39.33;;;8.70;99.90;;;;;;5031974;28;20038;-56
2022/04/24 00:44:26;;;;;;;54.83;37.65;;;8.70;99.90;;;;;;5048823;28;20021;-53
2022/04/24 00:47:13;;;;;;;57.15;39.28;;;8.70;99.90;;;;;;5034988;28;20030;-55
2022/04/24 00:49:41;;;;;;;69.47;41.42;;;8.70;99.90;;;;;;5042894;28;20037;-55
2022/04/24 00:52:07;;;;;;;57.65;42.13;;;8.60;99.90;;;;;;5051429;28;20420;-51
2022/04/24 00:54:33;;;;;;;56.63;39.83;;;8.60;99.90;;;;;;5051396;28;20025;-54
2022/04/24 00:56:58;;;;;;;65.20;43.20;;;8.60;99.90;;;;;;5034415;28;20372;-55
2022/04/24 00:59:24;;;;;;;61.10;42.92;;;8.60;99.90;;;;;;5043023;28;20071;-53
2022/04/24 01:01:50;;;;;;;61.88;40.85;;;8.60;99.90;;;;;;5052116;28;20364;-54
2022/04/24 01:04:18;;;;;;;60.88;41.40;;;8.60;99.90;;;;;;5052396;28;20047;-52
2022/04/24 01:06:43;;;;;;;62.25;39.45;;;8.60;99.90;;;;;;5035794;28;20030;-53
2022/04/24 01:09:10;;;;;;;56.50;38.40;;;8.60;99.90;;;;;;5040422;28;20036;-56
2022/04/24 01:11:36;;;;;;;61.63;40.58;;;8.60;99.90;;;;;;5037211;28;20136;-56
2022/04/24 01:14:02;;;;;;;53.78;39.45;;;8.60;99.90;;;;;;5033018;28;20516;-53
2022/04/24 01:16:28;;;;;;;58.67;40.40;;;8.60;99.90;;;;;;5047815;28;20025;-52
2022/04/24 01:18:55;;;;;;;59.28;40.40;;;8.60;99.90;;;;;;5053086;28;20511;-51
2022/04/24 01:21:20;;;;;;;58.85;40.42;;;8.60;99.90;;;;;;5041981;28;20033;-52
2022/04/24 01:23:46;;;;;;;51.63;38.70;;;8.50;99.90;;;;;;5033306;28;20025;-53
2022/04/24 01:26:12;;;;;;;56.72;39.72;;;8.50;99.90;;;;;;5034996;28;20026;-55
2022/04/24 01:28:38;;;;;;;58.75;41.55;;;8.60;99.90;;;;;;5033104;28;20060;-55
2022/04/24 01:31:05;;;;;;;62.38;42.05;;;8.60;99.90;;;;;;5034557;28;20426;-56
2022/04/24 01:33:31;;;;;;;58.47;39.92;;;8.60;99.90;;;;;;5045161;28;20025;-54
2022/04/24 01:35:57;;;;;;;58.40;41.03;;;8.60;99.90;;;;;;5052647;28;20029;-56
2022/04/24 01:38:22;;;;;;;56.80;40.85;;;8.60;99.90;;;;;;5050285;28;20125;-53
2022/04/24 01:40:48;;;;;;;55.17;39.25;;;8.60;99.90;;;;;;5036616;28;20097;-52
2022/04/24 01:43:16;;;;;;;54.65;38.28;;;8.50;99.90;;;;;;5040579;28;20028;-54
2022/04/24 01:45:42;;;;;;;61.78;41.90;;;8.60;99.90;;;;;;5052423;28;20041;-55
2022/04/24 01:48:08;;;;;;;57.42;39.65;;;8.50;99.90;;;;;;5052158;28;20039;-57
2022/04/24 01:50:34;;;;;;;59.17;39.85;;;8.50;99.90;;;;;;5047635;28;20125;-55
2022/04/24 01:53:00;;;;;;;55.17;39.72;;;8.60;99.90;;;;;;5032778;28;20025;-54
2022/04/24 01:55:25;;;;;;;57.15;38.55;;;8.60;99.90;;;;;;5041024;28;20031;-55
2022/04/24 01:57:52;;;;;;;53.42;37.70;;;8.50;99.90;;;;;;5032667;28;20578;-57
2022/04/24 02:00:18;;;;;;;52.85;38.05;;;8.50;99.90;;;;;;5033505;28;20637;-56
2022/04/24 02:02:45;;;;;;;54.13;36.30;;;8.60;99.90;;;;;;5033032;28;20067;-57
2022/04/24 02:05:10;;;;;;;55.42;37.53;;;8.60;99.90;;;;;;5039420;28;20337;-57
2022/04/24 02:07:36;;;;;;;57.70;37.83;;;8.60;99.90;;;;;;5052854;28;20090;-56
2022/04/24 02:10:02;;;;;;;59.53;37.92;;;8.50;99.90;;;;;;5051839;28;20479;-57
2022/04/24 02:12:27;;;;;;;56.63;38.75;;;8.50;99.90;;;;;;5050236;28;20036;-56
2022/04/24 02:14:53;;;;;;;52.47;38.58;;;8.50;99.90;;;;;;5047080;28;20049;-54
2022/04/24 02:17:19;;;;;;;62.42;41.30;;;8.50;99.90;;;;;;5032288;28;20137;-57
2022/04/24 02:19:44;;;;;;;54.17;39.17;;;8.40;99.90;;;;;;5032387;28;20056;-57
2022/04/24 02:22:10;;;;;;;55.70;37.80;;;8.50;99.90;;;;;;5032322;28;20068;-56
2022/04/24 02:24:35;;;;;;;58.08;38.88;;;8.50;99.90;;;;;;5033963;28;20499;-56
2022/04/24 02:27:01;;;;;;;54.45;37.67;;;8.50;99.90;;;;;;5052075;28;20476;-57
2022/04/24 02:29:27;;;;;;;55.90;38.60;;;8.50;99.90;;;;;;5051906;28;20017;-56
2022/04/24 02:31:53;;;;;;;51.65;36.20;;;8.40;99.90;;;;;;5051848;28;20029;-54
2022/04/24 02:34:18;;;;;;;54.15;37.97;;;8.40;99.90;;;;;;5052000;28;20395;-57
2022/04/24 02:36:44;;;;;;;59.42;39.05;;;8.50;99.90;;;;;;5032915;28;20030;-55
2022/04/24 02:39:09;;;;;;;54.83;37.50;;;8.50;99.90;;;;;;5035208;28;20102;-55
2022/04/24 02:41:35;;;;;;;61.65;39.28;;;8.50;99.90;;;;;;5051918;28;20056;-58
2022/04/24 02:44:01;;;;;;;53.72;36.92;;;8.40;99.90;;;;;;5038942;28;20029;-56
2022/04/24 02:46:26;;;;;;;49.78;35.60;;;8.50;99.90;;;;;;5048069;28;20029;-52
2022/04/24 02:48:52;;;;;;;55.30;37.60;;;8.50;99.90;;;;;;5051591;28;20094;-56
2022/04/24 02:51:18;;;;;;;52.80;37.20;;;8.40;99.90;;;;;;5051402;28;20435;-57
2022/04/24 02:53:44;;;;;;;53.40;37.58;;;8.50;99.90;;;;;;5051411;28;20079;-56
2022/04/24 02:56:09;;;;;;;48.92;34.90;;;8.50;99.90;;;;;;5035969;28;20037;-56
2022/04/24 02:58:38;;;;;;;52.40;36.53;;;8.50;99.90;;;;;;5031774;28;20052;-56
2022/04/24 03:01:03;;;;;;;57.25;37.67;;;8.60;99.90;;;;;;5032015;28;20048;-56
2022/04/24 03:03:29;;;;;;;56.97;34.35;;;8.50;99.90;;;;;;5032805;28;20432;-56
2022/04/24 03:05:55;;;;;;;45.40;32.28;;;8.60;99.90;;;;;;5036615;28;20100;-55
2022/04/24 03:08:21;;;;;;;52.58;34.80;;;8.60;99.90;;;;;;5030809;28;20025;-56
2022/04/24 03:10:47;;;;;;;54.08;35.22;;;8.60;99.90;;;;;;5031841;28;20029;-50
2022/04/24 03:13:13;;;;;;;53.70;38.33;;;8.50;99.90;;;;;;5032587;28;20106;-56
2022/04/24 03:15:39;;;;;;;52.65;37.88;;;8.50;99.90;;;;;;5040422;28;20477;-56
2022/04/24 03:18:05;;;;;;;58.72;37.83;;;8.50;99.90;;;;;;5051705;28;20070;-57
2022/04/24 03:20:32;;;;;;;54.38;37.72;;;8.50;99.90;;;;;;5050975;28;20670;-56
2022/04/24 03:22:57;;;;;;;51.40;36.40;;;8.50;99.90;;;;;;5050091;28;20021;-56
2022/04/24 03:25:23;;;;;;;53.17;38.55;;;8.50;99.90;;;;;;5043549;28;20539;-56
2022/04/24 03:27:49;;;;;;;56.45;37.25;;;8.50;99.90;;;;;;5051191;28;20085;-54
2022/04/24 03:30:14;;;;;;;56.55;37.75;;;8.50;99.90;;;;;;5051142;28;20040;-56
2022/04/24 03:32:41;;;;;;;52.50;37.00;;;8.50;99.90;;;;;;5051119;28;20037;-55
2022/04/24 03:35:09;;;;;;;50.38;36.95;;;8.50;99.90;;;;;;5046673;28;20148;-55
2022/04/24 03:37:35;;;;;;;50.00;35.75;;;8.50;99.90;;;;;;5031418;28;20028;-57
2022/04/24 03:40:01;;;;;;;55.75;36.72;;;8.60;99.90;;;;;;5041085;28;20033;-56
2022/04/24 03:42:28;;;;;;;51.58;35.72;;;8.50;99.90;;;;;;5042353;28;20633;-52
2022/04/24 03:44:54;;;;;;;56.33;36.25;;;8.60;99.90;;;;;;5041461;28;20021;-56
2022/04/24 03:47:21;;;;;;;50.03;36.28;;;8.50;99.90;;;;;;5030700;28;20060;-54
2022/04/24 03:49:46;;;;;;;54.42;36.72;;;8.60;99.90;;;;;;5042754;28;20021;-56
2022/04/24 03:52:12;;;;;;;58.08;37.60;;;8.60;99.90;;;;;;5050459;28;20129;-55
2022/04/24 03:54:38;;;;;;;54.17;35.20;;;8.60;99.90;;;;;;5040665;28;20053;-52
2022/04/24 03:57:04;;;;;;;53.67;34.75;;;8.60;99.90;;;;;;5030333;28;20032;-54
2022/04/24 03:59:30;;;;;;;56.90;36.47;;;8.50;99.90;;;;;;5030010;28;20021;-54
2022/04/24 04:01:56;;;;;;;53.78;37.25;;;8.50;99.90;;;;;;5041569;28;20559;-56
2022/04/24 04:04:22;;;;;;;51.70;35.72;;;8.60;99.90;;;;;;5050308;28;20033;-56
2022/04/24 04:06:47;;;;;;;51.55;34.88;;;8.50;99.90;;;;;;5051037;28;20029;-56
2022/04/24 04:09:13;;;;;;;49.92;33.70;;;8.50;99.90;;;;;;5050455;28;20400;-55
2022/04/24 04:11:39;;;;;;;52.28;34.25;;;8.60;99.90;;;;;;5049196;28;20086;-56
2022/04/24 04:14:04;;;;;;;49.65;35.28;;;8.60;99.90;;;;;;5050691;28;20048;-53
2022/04/24 04:16:49;;;;;;;54.22;33.55;;;8.50;99.90;;;;;;5040872;28;20028;-57
2022/04/24 04:19:15;;;;;;;47.92;33.72;;;8.60;99.90;;;;;;5032877;28;20079;-56
2022/04/24 04:21:41;;;;;;;48.50;33.95;;;8.60;99.90;;;;;;5042900;28;20033;-57
2022/04/24 04:24:08;;;;;;;45.38;30.83;;;8.60;99.90;;;;;;5054584;28;20017;-56
2022/04/24 04:26:34;;;;;;;47.38;32.33;;;8.60;99.90;;;;;;5054727;28;20025;-56
2022/04/24 04:28:59;;;;;;;48.38;34.47;;;8.60;99.90;;;;;;5054640;28;20021;-56
2022/04/24 04:31:25;;;;;;;48.13;33.15;;;8.60;99.90;;;;;;5048416;28;20033;-57
2022/04/24 04:33:51;;;;;;;48.95;34.35;;;8.70;99.90;;;;;;5034705;28;20017;-57
2022/04/24 04:36:16;;;;;;;44.55;33.28;;;8.60;99.90;;;;;;5034639;28;20032;-56
2022/04/24 04:38:42;;;;;;;44.88;31.67;;;8.70;99.90;;;;;;5035201;28;20028;-57
2022/04/24 04:41:58;;;;;;;45.97;32.67;;;8.60;99.90;;;;;;5048379;28;20021;-53
2022/04/24 04:44:23;;;;;;;43.35;33.78;;;8.60;99.90;;;;;;5035236;28;20029;-53
2022/04/24 04:46:49;;;;;;;47.75;32.95;;;8.60;99.90;;;;;;5043532;28;20052;-56
2022/04/24 04:49:14;;;;;;;45.50;32.85;;;8.60;99.90;;;;;;5039297;28;20109;-55
2022/04/24 04:51:40;;;;;;;52.60;33.22;;;8.60;99.90;;;;;;5041647;28;20096;-56
2022/04/24 04:54:06;;;;;;;42.28;29.30;;;8.60;99.90;;;;;;5053050;28;20029;-55
2022/04/24 04:56:31;;;;;;;47.38;32.40;;;8.60;99.90;;;;;;5052239;28;20025;-56
2022/04/24 04:58:57;;;;;;;45.60;32.47;;;8.60;99.90;;;;;;5053513;28;20013;-51
2022/04/24 05:01:23;;;;;;;45.15;31.98;;;8.60;99.90;;;;;;5048510;28;20362;-54
2022/04/24 05:03:49;;;;;;;46.95;33.50;;;8.70;99.90;;;;;;5037530;28;20515;-56
2022/04/24 05:06:15;;;;;;;44.08;32.50;;;8.70;99.90;;;;;;5053371;28;20021;-57
2022/04/24 05:08:40;;;;;;;46.15;32.33;;;8.80;99.90;;;;;;5052730;28;20039;-53
2022/04/24 05:11:06;;;;;;;42.03;31.30;;;8.80;99.90;;;;;;5051781;28;20064;-52
2022/04/24 05:13:32;;;;;;;43.92;31.67;;;8.80;99.90;;;;;;5052780;28;20080;-54
2022/04/24 05:15:57;;;;;;;43.28;31.35;;;8.90;99.90;;;;;;5053766;28;20029;-54
2022/04/24 05:18:23;;;;;;;44.28;28.67;;;9.00;99.90;;;;;;5052684;28;20025;-56
2022/04/24 05:20:50;;;;;;;38.53;29.73;;;9.10;99.90;;;;;;5045124;28;20026;-57
2022/04/24 05:23:15;;;;;;;36.88;28.67;;;9.10;99.90;;;;;;5031897;28;20033;-56
2022/04/24 05:25:41;;;;;;;39.90;27.58;;;9.10;99.90;;;;;;5033489;28;20108;-55
2022/04/24 05:28:07;;;;;;;38.55;27.75;;;9.20;99.90;;;;;;5033675;28;20049;-55
2022/04/24 05:30:33;;;;;;;42.65;28.25;;;9.20;99.90;;;;;;5050672;28;20039;-54
2022/04/24 05:32:59;;;;;;;40.88;29.10;;;9.30;99.90;;;;;;5035451;28;20033;-58
2022/04/24 05:35:24;;;;;;;42.35;27.38;;;9.40;99.90;;;;;;5041103;28;20110;-56
2022/04/24 05:37:50;;;;;;;40.22;26.70;;;9.50;99.90;;;;;;5052908;28;20135;-54
2022/04/24 05:40:17;;;;;;;35.90;26.35;;;9.40;99.90;;;;;;5040002;28;20041;-56
2022/04/24 05:42:49;;;;;;;32.40;26.52;;;9.40;99.90;;;;;;5033055;28;20029;-57
2022/04/24 05:45:18;;;;;;;37.90;25.73;;;9.40;99.90;;;;;;5040569;28;20032;-56
2022/04/24 05:47:44;;;;;;;33.80;27.23;;;9.60;99.90;;;;;;5056482;28;20029;-59
2022/04/24 05:50:10;;;;;;;36.30;26.83;;;9.70;99.90;;;;;;5058591;28;20116;-54
2022/04/24 05:52:36;;;;;;;33.90;25.05;;;9.80;99.90;;;;;;5043664;28;20191;-56
2022/04/24 05:55:01;;;;;;;31.95;25.17;;;9.80;99.90;;;;;;5047321;28;20029;-57
2022/04/24 05:57:27;;;;;;;34.17;24.90;;;10.00;99.90;;;;;;5044442;28;20529;-56
2022/04/24 05:59:53;;;;;;;31.85;25.75;;;10.10;99.90;;;;;;5043082;28;20456;-56
2022/04/24 06:02:18;;;;;;;32.30;24.77;;;10.10;99.90;;;;;;5032442;28;20033;-56
2022/04/24 06:04:44;;;;;;;32.97;25.15;;;10.20;99.90;;;;;;5034492;28;20029;-57
2022/04/24 06:07:10;;;;;;;34.58;25.55;;;10.30;99.90;;;;;;5052013;28;20037;-57
2022/04/24 06:09:35;;;;;;;35.00;23.70;;;10.30;99.90;;;;;;5052493;28;20452;-54
2022/04/24 06:12:01;;;;;;;32.45;23.58;;;10.30;99.90;;;;;;5035828;28;20061;-57
2022/04/24 06:14:28;;;;;;;29.80;23.92;;;10.40;99.90;;;;;;5051373;28;20103;-57
2022/04/24 06:16:54;;;;;;;35.22;24.40;;;10.20;99.90;;;;;;5053869;28;20029;-53
2022/04/24 06:19:19;;;;;;;31.80;25.30;;;10.10;99.90;;;;;;5069790;28;20028;-53
2022/04/24 06:21:45;;;;;;;33.20;22.83;;;10.20;99.90;;;;;;5068730;28;20028;-54
2022/04/24 06:24:11;;;;;;;32.85;25.30;;;10.20;99.90;;;;;;5052216;28;20484;-55
2022/04/24 06:26:36;;;;;;;31.60;25.15;;;9.80;99.90;;;;;;5052381;28;20526;-53
2022/04/24 06:29:03;;;;;;;32.63;23.60;;;9.90;99.90;;;;;;5051906;28;20044;-53
2022/04/24 06:31:28;;;;;;;29.23;24.20;;;10.00;99.90;;;;;;5052210;28;20029;-56
2022/04/24 06:33:54;;;;;;;29.67;23.77;;;10.00;99.90;;;;;;5052461;28;20044;-56
2022/04/24 06:36:20;;;;;;;31.35;21.88;;;10.10;99.90;;;;;;5052280;28;20346;-54
2022/04/24 06:38:45;;;;;;;32.47;22.65;;;10.10;99.90;;;;;;5052188;28;20029;-54
2022/04/24 06:41:11;;;;;;;30.48;22.45;;;10.10;99.90;;;;;;5052084;28;20044;-55
2022/04/24 06:43:36;;;;;;;30.40;22.92;;;10.10;99.90;;;;;;5051273;28;20513;-55
2022/04/24 06:46:02;;;;;;;25.60;19.83;;;10.20;99.90;;;;;;5052117;28;20021;-54
2022/04/24 06:48:28;;;;;;;28.08;20.73;;;10.30;99.90;;;;;;5050713;28;20117;-56
2022/04/24 06:50:53;;;;;;;27.17;21.75;;;10.50;99.90;;;;;;5052038;28;20029;-54
2022/04/24 06:53:20;;;;;;;28.42;21.83;;;10.60;99.90;;;;;;5050363;28;20025;-52
2022/04/24 06:55:48;;;;;;;25.38;19.73;;;10.70;99.90;;;;;;5050664;28;20465;-54
2022/04/24 06:58:16;;;;;;;27.15;19.48;;;10.90;99.90;;;;;;5049833;28;20060;-50
2022/04/24 07:00:44;;;;;;;23.88;17.83;;;11.20;99.90;;;;;;5050181;28;20027;-52
2022/04/24 07:03:16;;;;;;;22.38;17.60;;;11.30;99.90;;;;;;5051416;28;20063;-54
2022/04/24 07:05:42;;;;;;;24.25;16.75;;;11.50;99.90;;;;;;5041928;28;20029;-57
2022/04/24 07:08:09;;;;;;;20.98;17.25;;;11.60;99.90;;;;;;5031021;28;20514;-56
2022/04/24 07:10:35;;;;;;;24.75;18.05;;;11.70;99.90;;;;;;5031949;28;20057;-55
2022/04/24 07:13:03;;;;;;;23.52;16.75;;;11.70;99.90;;;;;;5070907;28;20028;-55
2022/04/24 07:15:31;;;;;;;21.90;16.58;;;11.80;99.90;;;;;;5071180;28;20106;-57
2022/04/24 07:17:57;;;;;;;21.70;15.98;;;11.70;99.90;;;;;;5071216;28;20046;-55
2022/04/24 07:20:23;;;;;;;19.35;15.32;;;11.80;99.90;;;;;;5071591;28;20488;-52
2022/04/24 07:22:49;;;;;;;21.35;17.40;;;11.80;99.90;;;;;;5071326;28;20036;-56
2022/04/24 07:25:26;;;;;;;19.60;16.75;;;11.90;99.90;;;;;;5070777;28;20032;-56
2022/04/24 07:27:52;;;;;;;22.70;18.40;;;11.80;99.90;;;;;;5071228;28;20032;-56
2022/04/24 07:30:18;;;;;;;24.73;17.35;;;11.80;99.90;;;;;;5070864;28;20426;-57
2022/04/24 07:36:06;;;;;;;24.00;18.60;;;11.70;99.90;;;;;;5071634;28;20074;-55
2022/04/24 07:38:32;;;;;;;24.25;19.25;;;11.70;99.90;;;;;;5071182;28;20029;-54
2022/04/24 07:40:59;;;;;;;25.45;19.88;;;11.60;99.90;;;;;;5071358;28;20078;-56
2022/04/24 07:43:24;;;;;;;21.10;17.10;;;11.60;99.90;;;;;;5071123;28;20517;-57
2022/04/24 07:45:50;;;;;;;22.15;17.55;;;11.50;99.90;;;;;;5069818;28;20024;-51
2022/04/24 07:48:17;;;;;;;24.00;17.17;;;11.70;99.90;;;;;;5041818;28;20034;-57
2022/04/24 07:50:50;;;;;;;19.42;16.20;;;11.70;99.90;;;;;;5049453;28;20548;-56
2022/04/24 07:53:17;;;;;;;26.55;18.38;;;11.70;99.90;;;;;;5049535;28;20025;-54
2022/04/24 07:55:44;;;;;;;20.50;17.42;;;11.80;99.90;;;;;;5054762;28;20029;-51
2022/04/24 07:58:11;;;;;;;21.17;16.23;;;11.90;99.90;;;;;;5054432;28;20563;-55
2022/04/24 08:00:37;;;;;;;21.40;15.65;;;12.10;99.90;;;;;;5035867;28;20108;-55
2022/04/24 08:03:08;;;;;;;24.33;18.08;;;12.20;99.90;;;;;;5035789;28;20073;-53
2022/04/24 08:05:36;;;;;;;23.50;16.52;;;12.30;99.90;;;;;;5034125;28;20025;-56
2022/04/24 08:08:06;;;;;;;22.55;16.92;;;12.40;99.90;;;;;;5033762;28;20037;-52
2022/04/24 08:10:35;;;;;;;22.13;16.75;;;12.40;99.90;;;;;;5052681;28;20025;-54
2022/04/24 08:13:04;;;;;;;19.77;15.75;;;12.60;99.90;;;;;;5054313;28;20025;-55
2022/04/24 08:15:30;;;;;;;21.05;16.88;;;12.60;99.90;;;;;;5054582;28;20115;-53
2022/04/24 08:17:56;;;;;;;32.60;19.85;;;12.60;99.90;;;;;;5054113;28;20659;-53
2022/04/24 08:20:22;;;;;;;20.23;15.73;;;12.60;99.90;;;;;;5037521;28;20029;-52
2022/04/24 08:22:49;;;;;;;19.25;15.88;;;12.80;99.90;;;;;;5034599;28;20035;-57
2022/04/24 08:25:21;;;;;;;18.40;14.63;;;13.10;99.90;;;;;;5034257;28;20385;-56
2022/04/24 08:27:48;;;;;;;20.00;15.00;;;13.20;99.90;;;;;;5033938;28;20029;-56
2022/04/24 08:30:14;;;;;;;18.90;14.38;;;13.30;99.90;;;;;;5049248;28;20083;-54
2022/04/24 08:32:41;;;;;;;23.38;16.45;;;13.20;99.90;;;;;;5051030;28;20025;-52
2022/04/24 08:35:09;;;;;;;18.85;13.20;;;13.50;99.90;;;;;;5054140;28;20017;-58
2022/04/24 08:37:36;;;;;;;16.75;13.65;;;13.50;99.90;;;;;;5054344;28;20124;-55
2022/04/24 08:40:03;;;;;;;18.20;12.73;;;13.70;99.90;;;;;;5042397;28;20064;-55
2022/04/24 08:42:29;;;;;;;13.90;12.27;;;13.30;99.90;;;;;;5034307;28;20056;-52
2022/04/24 08:44:56;;;;;;;15.25;12.57;;;13.20;99.90;;;;;;5033493;28;20060;-54
2022/04/24 08:47:23;;;;;;;18.27;14.80;;;13.40;99.90;;;;;;5034153;28;20112;-54
2022/04/24 08:49:54;;;;;;;17.60;13.77;;;13.30;99.90;;;;;;5046639;28;20033;-57
2022/04/24 08:52:21;;;;;;;16.83;12.23;;;13.10;99.90;;;;;;5053913;28;20025;-53
2022/04/24 08:54:48;;;;;;;16.67;12.73;;;13.20;99.90;;;;;;5052119;28;20415;-54
2022/04/24 08:57:14;;;;;;;15.82;12.77;;;13.00;99.90;;;;;;5033809;28;20017;-55
2022/04/24 08:59:40;;;;;;;15.27;12.48;;;13.30;99.90;;;;;;5033458;28;20468;-53
2022/04/24 09:02:06;;;;;;;15.68;12.18;;;13.50;99.90;;;;;;5045783;28;20060;-53
2022/04/24 09:04:36;;;;;;;14.55;12.20;;;13.70;99.90;;;;;;5053039;28;20033;-55
2022/04/24 09:07:04;;;;;;;15.32;11.95;;;13.70;99.90;;;;;;5053409;28;20473;-52
2022/04/24 09:09:38;;;;;;;13.80;12.07;;;13.70;99.90;;;;;;5033969;28;20065;-57
2022/04/24 09:12:10;;;;;;;;;;;13.70;99.90;;;;;;5034421;28;20424;-56
2022/04/24 09:14:36;;;;;;;15.88;12.23;;;14.10;99.90;;;;;;5033782;28;20339;-56
2022/04/24 09:17:06;;;;;;;15.48;12.13;;;14.40;99.90;;;;;;5033952;28;20017;-54
2022/04/24 09:19:33;;;;;;;20.23;12.25;;;14.00;99.90;;;;;;5052117;28;20033;-56
2022/04/24 09:22:08;;;;;;;13.52;11.23;;;14.10;99.90;;;;;;5053834;28;20055;-55
2022/04/24 09:24:48;;;;;;;19.90;12.82;;;14.10;99.90;;;;;;5053770;28;20032;-55
2022/04/24 09:27:30;;;;;;;17.77;12.30;;;14.70;99.90;;;;;;5040037;28;20025;-53
2022/04/24 09:30:08;;;;;;;14.43;12.32;;;14.90;99.90;;;;;;5033464;28;20036;-57
2022/04/24 09:32:55;;;;;;;14.27;12.18;;;15.20;99.90;;;;;;5048524;28;20025;-56
2022/04/24 09:35:37;;;;;;;16.27;12.75;;;15.10;99.90;;;;;;5053474;28;20545;-56
2022/04/24 09:38:17;;;;;;;18.73;12.20;;;15.20;99.90;;;;;;5052259;28;20025;-58
2022/04/24 09:40:49;;;;;;;14.27;12.32;;;15.00;99.90;;;;;;5051971;28;20515;-55
2022/04/24 09:43:17;;;;;;;24.58;13.23;;;15.00;99.70;;;;;;5052597;28;20127;-55
2022/04/24 09:45:48;;;;;;;15.00;12.27;;;14.90;99.90;;;;;;5052885;28;20025;-55
2022/04/24 09:48:16;;;;;;;16.15;12.73;;;15.30;99.90;;;;;;5052975;28;20063;-54
2022/04/24 09:50:42;;;;;;;23.17;11.25;;;15.50;98.90;;;;;;5052814;28;20017;-57
2022/04/24 09:53:14;;;;;;;17.30;12.60;;;15.80;99.30;;;;;;5032562;28;20037;-57
2022/04/24 09:55:41;;;;;;;16.58;12.55;;;15.50;99.80;;;;;;5033021;28;20028;-52
2022/04/24 09:58:10;;;;;;;15.25;11.23;;;15.20;98.00;;;;;;5032448;28;20021;-56
2022/04/24 10:00:36;;;;;;;15.65;10.35;;;15.30;98.10;;;;;;5031758;28;20100;-55
2022/04/24 10:03:02;;;;;;;13.50;10.88;;;15.60;97.70;;;;;;5050992;28;20655;-57
2022/04/24 10:05:31;;;;;;;11.90;10.23;;;15.60;98.60;;;;;;5052120;28;20372;-56
2022/04/24 10:07:59;;;;;;;13.00;10.45;;;15.70;97.80;;;;;;5052221;28;20039;-56
2022/04/24 10:10:25;;;;;;;12.48;10.82;;;15.70;96.90;;;;;;5052725;28;20449;-55
2022/04/24 10:12:52;;;;;;;12.52;10.57;;;16.20;96.80;;;;;;5035019;28;20067;-55
2022/04/24 10:15:20;;;;;;;13.27;11.07;;;16.60;95.80;;;;;;5032556;28;20537;-55
2022/04/24 10:18:39;;;;;;;10.45;9.10;;;16.50;96.80;;;;;;5032398;28;20380;-51
2022/04/24 10:21:26;;;;;;;16.42;10.73;;;17.40;93.50;;;;;;5033537;28;20032;-57
2022/04/24 10:23:51;;;;;;;14.45;9.95;;;16.90;94.50;;;;;;5052305;28;20029;-57
2022/04/24 10:26:22;;;;;;;12.25;9.55;;;17.70;95.20;;;;;;5052190;28;20566;-57
2022/04/24 10:28:49;;;;;;;11.68;9.55;;;18.30;94.10;;;;;;5049791;28;20107;-55
2022/04/24 10:31:16;;;;;;;12.07;9.05;;;17.70;92.50;;;;;;5031439;28;20029;-57
2022/04/24 10:33:51;;;;;;;13.02;9.32;;;17.50;92.80;;;;;;5032090;28;20022;-58
2022/04/24 10:36:17;;;;;;;12.65;9.63;;;17.40;91.60;;;;;;5049114;28;20536;-55
2022/04/24 10:38:47;;;;;;;10.95;8.07;;;17.70;92.00;;;;;;5050485;28;20514;-56
2022/04/24 10:41:24;;;;;;;11.15;8.68;;;17.60;91.10;;;;;;5031784;28;20051;-56
2022/04/24 10:43:53;;;;;;;11.18;7.80;;;17.20;89.50;;;;;;5031544;28;20436;-57
2022/04/24 10:46:24;;;;;;;9.90;8.60;;;17.50;91.20;;;;;;5032528;28;20017;-55
2022/04/24 10:48:50;;;;;;;11.27;8.65;;;17.10;90.20;;;;;;5038763;28;20080;-54
2022/04/24 10:51:29;;;;;;;11.57;9.57;;;17.70;91.50;;;;;;5043856;28;20025;-57
2022/04/24 10:54:01;;;;;;;9.43;8.18;;;18.00;91.40;;;;;;5040129;28;20056;-54
2022/04/24 10:56:31;;;;;;;11.85;9.13;;;18.10;90.70;;;;;;5031970;28;20029;-56
2022/04/24 10:59:16;;;;;;;10.10;8.57;;;18.00;85.70;;;;;;5031810;28;20461;-58
2022/04/24 11:02:07;;;;;;;11.70;9.70;;;17.90;87.10;;;;;;5031852;28;20036;-55
2022/04/24 11:04:41;;;;;;;12.63;9.35;;;17.50;90.20;;;;;;5030456;28;20025;-54
2022/04/24 11:07:07;;;;;;;14.65;10.43;;;17.40;90.90;;;;;;5041562;28;20028;-57
2022/04/24 11:09:37;;;;;;;10.95;9.70;;;17.30;90.60;;;;;;5049874;28;20407;-54
2022/04/24 11:12:08;;;;;;;10.32;8.27;;;17.30;91.20;;;;;;5051649;28;20021;-57
2022/04/24 11:14:35;;;;;;;9.82;8.82;;;17.70;91.70;;;;;;5051136;28;20500;-57
2022/04/24 11:17:02;;;;;;;11.32;9.05;;;17.50;90.60;;;;;;5051481;28;20016;-53
2022/04/24 11:19:30;;;;;;;11.02;8.35;;;16.90;89.70;;;;;;5051401;28;20699;-55
2022/04/24 11:22:01;;;;;;;10.50;9.35;;;16.50;90.80;;;;;;5051450;28;20028;-53
2022/04/24 11:24:28;;;;;;;9.98;8.85;;;16.30;91.30;;;;;;5051533;28;20029;-57
2022/04/24 11:26:54;;;;;;;15.23;9.73;;;16.00;92.00;;;;;;5050833;28;20024;-54
2022/04/24 11:29:25;;;;;;;10.75;9.45;;;15.80;92.10;;;;;;5050126;28;20017;-50
2022/04/24 11:31:52;;;;;;;10.73;9.02;;;15.40;92.60;;;;;;5051072;28;20029;-52
2022/04/24 11:34:20;;;;;;;12.38;8.93;;;14.90;93.40;;;;;;5051135;28;20119;-53
2022/04/24 11:36:46;;;;;;;13.57;9.18;;;14.70;93.80;;;;;;5050772;28;20028;-53
2022/04/24 11:39:12;;;;;;;10.13;7.80;;;14.70;94.70;;;;;;5050895;28;20032;-54
2022/04/24 11:41:39;;;;;;;10.38;8.15;;;14.40;95.00;;;;;;5050821;28;20029;-50
2022/04/24 11:52:19;;;;;;;11.75;4.03;;;14.00;92.60;;;;;;5051187;28;20155;-55
2022/04/24 11:54:46;;;;;;;4.10;2.42;;;13.80;93.60;;;;;;5049908;28;20479;-57
2022/04/24 11:57:12;;;;;;;8.13;2.40;;;13.70;92.40;;;;;;5051145;28;20110;-54
2022/04/24 11:59:38;;;;;;;6.85;2.20;;;13.60;92.10;;;;;;5051171;28;20088;-55
2022/04/24 12:02:06;;;;;;;5.55;2.05;;;13.50;93.60;;;;;;5051242;28;20033;-53
2022/04/24 12:04:38;;;;;;;4.22;2.65;;;13.30;92.80;;;;;;5050899;28;20488;-52
2022/04/24 12:07:06;;;;;;;4.07;3.28;;;13.40;93.10;;;;;;5051423;28;20032;-56
2022/04/24 12:09:32;;;;;;;3.97;3.47;;;13.30;95.60;;;;;;5050872;28;20104;-56
2022/04/24 12:12:14;;;;;;;3.97;3.60;;;13.40;95.00;;;;;;5051117;28;20040;-54
2022/04/24 12:14:49;;;;;;;4.82;3.67;;;13.30;95.60;;;;;;5050842;28;20052;-52
2022/04/24 12:17:14;;;;;;;5.38;3.90;;;13.30;95.40;;;;;;5050924;28;20025;-51
2022/04/24 12:19:48;;;;;;;5.15;3.55;;;13.50;95.50;;;;;;5051104;28;20017;-54
2022/04/24 12:22:14;;;;;;;2.72;2.53;;;13.80;94.80;;;;;;5050945;28;20488;-53
2022/04/24 12:24:44;;;;;;;4.00;3.10;;;14.00;93.90;;;;;;5050967;28;20029;-56
2022/04/24 12:27:13;;;;;;;2.60;2.40;;;14.30;93.90;;;;;;5050000;28;20052;-55
2022/04/24 12:29:49;;;;;;;3.38;2.10;;;14.60;93.10;;;;;;5050870;28;20057;-54
2022/04/24 12:32:18;;;;;;;3.10;2.80;;;15.30;93.10;;;;;;5050701;28;20040;-55
2022/04/24 12:34:46;;;;;;;1.75;1.60;;;15.90;91.60;;;;;;5050801;28;20048;-50
2022/04/24 12:37:14;;;;;;;2.03;1.73;;;16.50;85.90;;;;;;5050638;28;20025;-57
2022/04/24 12:39:40;;;;;;;1.30;1.20;;;17.30;86.20;;;;;;5051684;28;20025;-53
2022/04/24 12:42:17;;;;;;;1.33;1.23;;;18.80;78.50;;;;;;5054539;28;20108;-55
2022/04/24 12:44:43;;;;;;;1.27;1.13;;;20.30;69.90;;;;;;5054458;28;20025;-52
2022/04/24 12:47:09;;;;;;;1.10;0.90;;;20.70;65.60;;;;;;5032830;28;20044;-57
2022/04/24 12:49:35;;;;;;;0.70;0.70;;;21.50;59.80;;;;;;5042321;28;20409;-55